Terminal Aerodrome Forecast
Issued by NWS Memphis, TN

Home | Current Version | Previous Version | Text Only | Print | Product List | Glossary On
Versions: 1 2 3 4 5 6 7 8 9 10 11 12 13 14 15 16 17 18 19 20 21 22 23 24 25 26 27 28 29 30 31 32 33 34 35 36 37 38 39
000
FTUS44 KMEG 221130
TAFJBR
TAF
KJBR 221130Z 2212/2312 VRB03KT 4SM BR FEW250
     FM221500 17007KT P6SM SCT250
     FM221800 18009KT P6SM SCT250
     FM230100 14004KT P6SM SCT250
     FM230600 18003KT P6SM SCT250
     FM230900 VRB03KT P6SM VCSH BKN050=

USA.gov is the U.S. government's official web portal to all federal, state and local government web resources and services.